CYWG/YWG METAR and TAF weather

Enter ICAO airport designator
Station Type Date Time Source
CYWG METAR 2018/07/21 03:00 UTC NOAA

CYWG 210300Z 02003KT 4SM FU BKN100 19/15 A3007 RMK FU2AC4 SLP185 DENSITY ALT 1300FT


Station Type Date Time Source
CYWG Decoded METAR 2018/07/21 03:00 UTC NOAA

Winnipeg Int. Airportman., Canada (CYWG) 49-54N 097-14W 239M
Jul 20, 2018 - 11:00 PM EDT / 2018.07.21 0300 UTC
Wind: from the NNE (020 degrees) at 3 MPH (3 KT):0
Visibility: 4 mile(s):0
Sky conditions: mostly cloudy
Weather: smoke
Temperature: 66 F (19 C)
Dew Point: 59 F (15 C)
Relative Humidity: 77%
Pressure (altimeter): 30.07 in. Hg (1018 hPa)
ob: CYWG 210300Z 02003KT 4SM FU BKN100 19/15 A3007 RMK FU2AC4 SLP185 DENSITY ALT 1300FT
cycle: 3

Station Type Date Time Source
CYWG TAF 2018/07/21 03:18 UTC NOAA

TAF
AMD CYWG 210313Z 2103/2124 VRB03KT P6SM FEW050
TEMPO 2103/2108 3SM FU
FM210800 VRB03KT P6SM SKC PROB30 2109/2113 1SM BR
FM211500 08010KT P6SM FEW050
BECMG 2120/2122 12010KT
RMK NXT FCST BY 210600Z


Example: see airport list